Time;durP1;ratioP1;P1;durP2;ratioP2;P2;SDS_P1;SDS_P2;PMS_P1;PMS_P2;Temp;Humidity;BMP_temperature;BMP_pressure;BME280_temperature;BME280_humidity;BME280_pressure;Samples;Min_cycle;Max_cycle;Signal;HPM_P1;HPM_P2
2022/03/27 00:02:15;;;;;;;27.42;10.95;;;;;;;12.65;69.08;102842.41;7385396;19;20587;-63
2022/03/27 00:04:42;;;;;;;26.88;10.68;;;;;;;12.64;69.18;102851.31;7387108;19;20022;-63
2022/03/27 00:07:09;;;;;;;22.38;9.93;;;;;;;12.58;69.62;102844.69;7385298;19;20441;-63
2022/03/27 00:09:36;;;;;;;22.60;10.55;;;;;;;12.53;69.26;102846.84;7385980;19;20105;-64
2022/03/27 00:12:03;;;;;;;28.90;11.30;;;;;;;12.46;69.99;102845.59;7384648;19;20010;-64
2022/03/27 00:14:31;;;;;;;19.67;9.55;;;;;;;12.45;69.32;102851.84;7384987;19;20009;-63
2022/03/27 00:16:57;;;;;;;19.20;9.00;;;;;;;12.43;69.30;102848.47;7383399;19;20511;-65
2022/03/27 00:19:24;;;;;;;23.13;10.00;;;;;;;12.40;69.92;102846.06;7388157;19;20109;-64
2022/03/27 00:21:51;;;;;;;29.52;10.32;;;;;;;12.34;69.86;102843.91;7385031;19;20594;-64
2022/03/27 00:24:18;;;;;;;22.88;10.27;;;;;;;12.31;69.56;102852.03;7386964;19;20102;-65
2022/03/27 00:26:45;;;;;;;20.65;9.80;;;;;;;12.29;69.78;102849.50;7385460;19;20074;-68
2022/03/27 00:29:16;;;;;;;17.63;9.07;;;;;;;12.28;69.65;102847.84;7386976;19;20025;-64
2022/03/27 00:31:48;;;;;;;20.52;10.02;;;;;;;12.23;69.70;102839.41;7383480;19;20026;-65
2022/03/27 00:34:15;;;;;;;22.50;9.95;;;;;;;12.24;70.25;102840.25;7388961;19;20021;-65
2022/03/27 00:36:42;;;;;;;20.23;9.30;;;;;;;12.20;69.89;102846.69;7387815;19;20014;-65
2022/03/27 00:39:08;;;;;;;26.73;11.68;;;;;;;12.16;70.24;102843.44;7384668;19;20016;-63
2022/03/27 00:41:37;;;;;;;22.08;10.63;;;;;;;12.10;70.19;102845.69;7386839;19;20215;-63
2022/03/27 00:44:04;;;;;;;22.23;9.63;;;;;;;12.00;70.26;102845.53;7384248;19;20010;-63
2022/03/27 00:46:31;;;;;;;22.60;10.98;;;;;;;11.94;70.74;102840.69;7386782;19;20053;-64
2022/03/27 00:48:58;;;;;;;21.63;9.38;;;;;;;11.88;71.10;102843.78;7387457;19;20014;-63
2022/03/27 00:51:25;;;;;;;22.35;10.25;;;;;;;11.84;71.23;102837.88;7384058;19;20026;-64
2022/03/27 00:53:52;;;;;;;25.65;10.48;;;;;;;11.84;71.70;102839.66;7386348;19;20022;-65
2022/03/27 00:56:19;;;;;;;20.80;9.25;;;;;;;11.82;71.18;102839.81;7384709;19;20021;-63
2022/03/27 00:58:45;;;;;;;18.80;9.20;;;;;;;11.68;71.25;102834.66;7384721;19;20094;-64
2022/03/27 01:01:31;;;;;;;22.00;9.85;;;;;;;11.64;71.56;102837.59;7385996;19;20427;-63
2022/03/27 01:03:58;;;;;;;17.90;8.35;;;;;;;11.59;71.81;102837.91;7382693;19;20127;-63
2022/03/27 01:06:47;;;;;;;25.33;10.70;;;;;;;11.54;72.91;102840.88;7383101;19;20023;-62
2022/03/27 01:09:37;;;;;;;22.20;9.07;;;;;;;11.54;72.61;102837.41;7380825;19;20014;-64
2022/03/27 01:12:22;;;;;;;19.67;9.43;;;;;;;11.55;73.15;102831.19;7384353;19;20010;-63
2022/03/27 01:14:51;;;;;;;20.67;9.85;;;;;;;11.54;73.37;102835.63;7381814;19;20014;-63
2022/03/27 01:17:21;;;;;;;21.48;9.40;;;;;;;11.57;72.21;102831.94;7379669;19;20010;-65
2022/03/27 01:19:51;;;;;;;20.65;8.65;;;;;;;11.57;72.13;102824.88;7386254;19;20017;-64
2022/03/27 01:22:19;;;;;;;17.90;8.40;;;;;;;11.57;71.54;102830.16;7382519;19;20025;-64
2022/03/27 01:24:48;;;;;;;17.40;8.00;;;;;;;11.57;72.46;102816.97;7382652;19;20614;-64
2022/03/27 01:27:15;;;;;;;17.52;8.32;;;;;;;11.57;71.67;102827.50;7386135;19;20436;-63
2022/03/27 01:29:42;;;;;;;17.80;8.50;;;;;;;11.54;71.71;102811.88;7385728;19;20015;-64
2022/03/27 01:32:14;;;;;;;17.35;7.82;;;;;;;11.53;71.98;102823.38;7383808;19;20086;-63
2022/03/27 01:34:47;;;;;;;18.90;7.43;;;;;;;11.48;71.61;102820.22;7385181;19;20141;-64
2022/03/27 01:37:19;;;;;;;16.52;7.90;;;;;;;11.46;71.86;102827.44;7382704;19;20026;-64
2022/03/27 01:39:49;;;;;;;18.33;7.25;;;;;;;11.42;72.95;102817.22;7384275;19;20010;-64
2022/03/27 01:42:19;;;;;;;22.50;11.05;;;;;;;11.40;72.58;102812.03;7381286;19;20035;-63
2022/03/27 01:44:46;;;;;;;19.67;7.32;;;;;;;11.42;72.83;102818.06;7382127;19;20017;-63
2022/03/27 01:47:13;;;;;;;17.75;7.35;;;;;;;11.40;71.84;102814.69;7380773;19;20031;-63
2022/03/27 01:49:42;;;;;;;20.45;7.68;;;;;;;11.38;71.74;102816.56;7384865;19;20042;-64
2022/03/27 01:52:09;;;;;;;18.33;6.53;;;;;;;11.40;72.37;102811.19;7379895;19;20043;-64
2022/03/27 01:54:36;;;;;;;12.57;6.03;;;;;;;11.42;71.86;102817.22;7383392;19;20016;-63
2022/03/27 01:57:04;;;;;;;12.23;5.78;;;;;;;11.43;71.96;102816.22;7379568;19;20019;-64
2022/03/27 01:59:31;;;;;;;16.00;6.68;;;;;;;11.44;71.80;102815.28;7380035;19;20026;-64
2022/03/27 02:01:58;;;;;;;14.80;6.07;;;;;;;11.43;71.64;102810.97;7381765;19;20055;-63
2022/03/27 02:04:26;;;;;;;18.55;7.47;;;;;;;11.41;71.89;102805.81;7382909;19;20078;-63
2022/03/27 02:06:53;;;;;;;14.10;6.55;;;;;;;11.37;71.88;102812.28;7384812;19;20007;-64
2022/03/27 02:09:20;;;;;;;16.65;6.93;;;;;;;11.32;71.98;102805.63;7383613;19;20465;-64
2022/03/27 02:11:47;;;;;;;16.55;7.22;;;;;;;11.28;72.50;102807.63;7381279;19;20098;-63
2022/03/27 02:14:14;;;;;;;20.00;7.13;;;;;;;11.23;72.34;102807.09;7380811;19;20030;-64
2022/03/27 02:16:41;;;;;;;15.10;7.00;;;;;;;11.15;72.97;102806.81;7381497;19;20276;-64
2022/03/27 02:19:10;;;;;;;15.20;6.40;;;;;;;11.13;73.29;102799.00;7388514;19;20017;-65
2022/03/27 02:21:42;;;;;;;19.30;7.38;;;;;;;11.06;73.32;102795.13;7386968;19;20346;-62
2022/03/27 02:24:09;;;;;;;15.03;6.33;;;;;;;11.11;73.37;102789.53;7391328;19;20079;-63
2022/03/27 02:26:43;;;;;;;18.67;7.25;;;;;;;11.10;73.40;102796.59;7388343;19;20470;-63
2022/03/27 02:29:12;;;;;;;15.88;7.05;;;;;;;11.12;74.58;102793.88;7388910;19;20022;-63
2022/03/27 02:31:39;;;;;;;17.45;9.45;;;;;;;11.10;73.75;102793.97;7388092;19;20089;-63
2022/03/27 02:34:06;;;;;;;17.10;7.40;;;;;;;11.09;74.42;102788.78;7387907;19;20027;-63
2022/03/27 02:36:33;;;;;;;16.42;6.88;;;;;;;11.09;73.13;102787.00;7388367;19;20368;-62
2022/03/27 02:39:00;;;;;;;15.40;7.03;;;;;;;11.07;73.89;102786.25;7387429;19;20011;-62
2022/03/27 02:41:27;;;;;;;19.75;7.82;;;;;;;11.05;74.25;102787.34;7390482;19;20122;-63
2022/03/27 02:43:54;;;;;;;15.07;6.82;;;;;;;11.01;74.69;102791.13;7387992;19;20018;-63
2022/03/27 02:46:21;;;;;;;18.83;8.50;;;;;;;10.98;73.92;102789.53;7387893;19;20011;-64
2022/03/27 02:48:48;;;;;;;19.25;8.30;;;;;;;10.96;75.26;102790.63;7388830;19;20344;-64
2022/03/27 02:51:18;;;;;;;18.55;8.70;;;;;;;10.93;74.98;102782.91;7388873;19;20106;-64
2022/03/27 02:53:45;;;;;;;16.35;7.05;;;;;;;10.91;74.34;102785.66;7391294;19;20010;-64
2022/03/27 02:56:12;;;;;;;19.05;8.20;;;;;;;10.90;74.50;102769.97;7384665;19;20019;-64
2022/03/27 02:58:39;;;;;;;22.08;9.23;;;;;;;10.87;75.48;102773.63;7391897;19;20547;-63
2022/03/27 03:01:07;;;;;;;16.60;7.68;;;;;;;10.83;75.03;102766.91;7390281;19;20028;-63
2022/03/27 03:03:37;;;;;;;21.80;7.45;;;;;;;10.80;74.98;102759.22;7385066;19;20007;-63
2022/03/27 03:06:07;;;;;;;20.67;8.98;;;;;;;10.76;75.78;102759.56;7386096;19;20023;-63
2022/03/27 03:08:37;;;;;;;19.48;7.72;;;;;;;10.75;75.24;102763.13;7386769;19;20032;-63
2022/03/27 03:11:04;;;;;;;17.55;7.97;;;;;;;10.68;75.40;102768.81;7383808;19;20597;-63
2022/03/27 03:13:31;;;;;;;17.50;7.13;;;;;;;10.65;75.68;102763.78;7389396;19;20014;-63
2022/03/27 03:15:59;;;;;;;18.60;8.02;;;;;;;10.64;75.67;102766.50;7386771;19;20178;-63
2022/03/27 03:18:27;;;;;;;20.00;7.93;;;;;;;10.63;76.10;102768.28;7388798;19;20018;-63
2022/03/27 03:20:54;;;;;;;20.08;8.35;;;;;;;10.60;75.91;102771.13;7386063;19;20737;-63
2022/03/27 03:23:21;;;;;;;18.92;7.82;;;;;;;10.58;75.87;102762.50;7386167;19;20122;-63
2022/03/27 03:25:48;;;;;;;21.40;8.20;;;;;;;10.57;76.31;102768.69;7386324;19;20022;-62
2022/03/27 03:28:34;;;;;;;20.70;7.38;;;;;;;10.56;76.12;102760.94;7385207;19;20018;-64
2022/03/27 03:31:01;;;;;;;16.92;7.35;;;;;;;10.55;76.60;102756.59;7384431;19;20021;-64
2022/03/27 03:33:28;;;;;;;16.80;7.43;;;;;;;10.55;76.34;102765.34;7386386;19;20022;-64
2022/03/27 03:35:55;;;;;;;18.80;7.93;;;;;;;10.48;76.33;102766.69;7385621;19;20014;-63
2022/03/27 03:38:23;;;;;;;21.10;7.65;;;;;;;10.47;77.00;102766.78;7389261;19;20013;-63
2022/03/27 03:40:50;;;;;;;18.27;6.95;;;;;;;10.50;76.75;102761.34;7385313;19;20079;-63
2022/03/27 03:43:19;;;;;;;17.23;7.60;;;;;;;10.49;77.45;102757.00;7388007;19;20014;-63
2022/03/27 03:45:46;;;;;;;16.45;6.90;;;;;;;10.50;77.26;102770.06;7386652;19;20022;-63
2022/03/27 03:48:13;;;;;;;18.92;7.70;;;;;;;10.50;77.54;102761.34;7388187;19;20091;-63
2022/03/27 03:50:40;;;;;;;15.45;7.30;;;;;;;10.52;77.37;102762.06;7384670;19;20078;-63
2022/03/27 03:53:07;;;;;;;18.65;7.95;;;;;;;10.53;76.85;102761.97;7387331;19;20011;-63
2022/03/27 03:55:34;;;;;;;17.02;7.80;;;;;;;10.51;77.76;102768.28;7383266;19;20130;-63
2022/03/27 03:58:02;;;;;;;18.75;7.10;;;;;;;10.51;76.95;102769.13;7384800;19;20146;-63
2022/03/27 04:00:30;;;;;;;18.65;7.28;;;;;;;10.48;76.93;102766.69;7384906;19;20030;-64
2022/03/27 04:02:57;;;;;;;19.20;7.30;;;;;;;10.44;76.94;102767.84;7384993;19;20031;-64
2022/03/27 04:05:24;;;;;;;20.42;8.00;;;;;;;10.40;77.71;102755.84;7384691;19;20007;-62
2022/03/27 04:07:51;;;;;;;18.85;7.63;;;;;;;10.41;77.49;102764.59;7384895;19;20082;-63
2022/03/27 04:10:19;;;;;;;19.60;7.75;;;;;;;10.38;77.34;102768.25;7384763;19;20133;-63
2022/03/27 04:12:46;;;;;;;20.00;9.25;;;;;;;10.37;77.93;102771.00;7384011;19;20138;-63
2022/03/27 04:15:12;;;;;;;16.75;6.97;;;;;;;10.31;77.56;102763.53;7384338;19;20009;-63
2022/03/27 04:17:44;;;;;;;17.80;7.20;;;;;;;10.27;78.09;102763.72;7383730;19;20047;-66
2022/03/27 04:20:15;;;;;;;17.55;7.13;;;;;;;10.19;78.40;102762.56;7386350;19;20013;-63
2022/03/27 04:22:46;;;;;;;16.80;6.90;;;;;;;10.14;78.46;102756.72;7381915;19;20010;-64
2022/03/27 04:25:15;;;;;;;18.48;8.63;;;;;;;10.05;79.10;102770.50;7383573;19;20074;-64
2022/03/27 04:27:43;;;;;;;21.40;8.25;;;;;;;10.02;79.16;102770.69;7380827;19;20475;-64
2022/03/27 04:30:12;;;;;;;19.50;8.23;;;;;;;10.00;80.35;102777.84;7385431;19;20348;-63
2022/03/27 04:32:40;;;;;;;21.38;7.90;;;;;;;9.97;80.52;102768.34;7381556;19;20011;-64
2022/03/27 04:35:09;;;;;;;17.40;7.25;;;;;;;9.97;79.96;102768.34;7384155;19;20022;-64
2022/03/27 04:37:43;;;;;;;16.00;6.22;;;;;;;9.98;80.09;102771.81;7383092;19;20018;-64
2022/03/27 04:40:13;;;;;;;19.75;6.63;;;;;;;9.89;80.03;102765.41;7380617;19;20074;-64
2022/03/27 04:42:41;;;;;;;18.90;7.10;;;;;;;9.92;80.01;102764.34;7383476;19;20011;-63
2022/03/27 04:45:10;;;;;;;17.58;7.30;;;;;;;9.88;80.47;102761.06;7381516;19;20105;-63
2022/03/27 04:47:37;;;;;;;17.10;7.07;;;;;;;9.80;80.83;102761.56;7382978;19;20106;-64
2022/03/27 04:50:04;;;;;;;21.38;9.52;;;;;;;9.86;81.11;102773.47;7382625;19;20010;-63
2022/03/27 04:52:31;;;;;;;21.02;7.53;;;;;;;9.90;81.70;102763.59;7381890;19;20024;-64
2022/03/27 04:54:58;;;;;;;17.98;7.70;;;;;;;9.93;80.93;102768.66;7387683;19;20481;-62
2022/03/27 04:57:32;;;;;;;19.50;6.53;;;;;;;9.96;81.41;102766.66;7382688;19;20106;-63
2022/03/27 04:59:59;;;;;;;17.35;7.43;;;;;;;9.98;81.54;102763.94;7383130;19;20011;-63
2022/03/27 05:02:26;;;;;;;18.92;7.70;;;;;;;10.00;81.16;102768.16;7384788;19;20472;-64
2022/03/27 05:04:52;;;;;;;20.35;8.07;;;;;;;10.00;81.31;102769.94;7381600;19;20010;-64
2022/03/27 05:07:19;;;;;;;16.13;6.78;;;;;;;10.01;81.18;102768.97;7385299;19;20070;-64
2022/03/27 05:09:46;;;;;;;22.27;8.40;;;;;;;10.03;82.24;102767.94;7383365;19;20003;-63
2022/03/27 05:12:13;;;;;;;18.33;7.45;;;;;;;10.03;81.94;102775.00;7383197;19;20502;-63
2022/03/27 05:14:40;;;;;;;23.15;9.57;;;;;;;10.07;81.87;102764.16;7381201;19;20479;-63
2022/03/27 05:17:07;;;;;;;21.23;8.73;;;;;;;10.06;82.21;102757.22;7385038;19;20021;-64
2022/03/27 05:19:34;;;;;;;24.10;9.52;;;;;;;10.07;81.98;102764.16;7383282;19;20010;-63
2022/03/27 05:22:00;;;;;;;18.50;8.10;;;;;;;10.11;83.33;102762.16;7382493;19;20086;-62
2022/03/27 05:24:28;;;;;;;19.38;7.35;;;;;;;10.12;82.62;102771.75;7385354;19;20084;-63
2022/03/27 05:26:55;;;;;;;19.45;7.85;;;;;;;10.12;83.62;102766.50;7381805;19;20010;-64
2022/03/27 05:29:22;;;;;;;17.92;6.55;;;;;;;10.16;83.02;102774.09;7384858;19;20127;-63
2022/03/27 05:31:48;;;;;;;25.95;10.45;;;;;;;10.15;83.41;102775.03;7382140;19;20014;-63
2022/03/27 05:34:15;;;;;;;18.95;8.40;;;;;;;10.13;83.97;102776.06;7383703;19;20019;-63
2022/03/27 05:36:42;;;;;;;20.67;7.85;;;;;;;10.11;83.47;102775.31;7379739;19;20074;-63
2022/03/27 05:39:09;;;;;;;19.13;8.25;;;;;;;10.11;83.48;102783.22;7382544;19;20474;-64
2022/03/27 05:41:36;;;;;;;21.85;8.40;;;;;;;10.12;83.39;102775.22;7385649;19;20014;-63
2022/03/27 05:44:03;;;;;;;19.13;7.53;;;;;;;10.14;83.75;102775.13;7382319;19;20371;-64
2022/03/27 05:46:30;;;;;;;22.23;7.55;;;;;;;10.10;84.64;102774.50;7381349;19;20376;-64
2022/03/27 05:48:57;;;;;;;18.13;7.57;;;;;;;10.07;84.81;102774.69;7381856;19;20017;-62
2022/03/27 05:51:24;;;;;;;29.15;10.35;;;;;;;10.05;86.10;102771.34;7389472;19;20038;-63
2022/03/27 05:53:51;;;;;;;21.70;8.65;;;;;;;10.05;87.05;102773.13;7391624;19;20029;-64
2022/03/27 05:56:17;;;;;;;20.70;8.70;;;;;;;10.00;87.61;102777.84;7390230;19;20021;-64
2022/03/27 05:58:44;;;;;;;25.40;8.50;;;;;;;10.01;87.51;102780.34;7387989;19;20019;-62
2022/03/27 06:01:14;;;;;;;38.88;13.05;;;;;;;10.03;88.59;102786.38;7389492;19;20015;-63
2022/03/27 06:03:45;;;;;;;22.45;8.48;;;;;;;9.99;87.96;102782.25;7388733;19;20032;-63
2022/03/27 06:06:14;;;;;;;25.40;9.23;;;;;;;9.96;87.75;102778.97;7389972;19;20032;-63
2022/03/27 06:08:41;;;;;;;39.67;10.95;;;;;;;9.93;88.59;102780.03;7388202;19;20599;-63
2022/03/27 06:11:10;;;;;;;20.98;8.77;;;;;;;9.93;89.03;102787.06;7388232;19;20415;-62
2022/03/27 06:13:43;;;;;;;38.70;11.13;;;;;;;9.93;89.14;102789.69;7388208;19;20021;-64
2022/03/27 06:16:10;;;;;;;22.38;8.23;;;;;;;9.87;89.16;102790.94;7392488;19;20020;-62
2022/03/27 06:18:37;;;;;;;19.42;7.82;;;;;;;9.87;89.26;102789.16;7386530;19;20345;-63
2022/03/27 06:21:04;;;;;;;33.13;8.43;;;;;;;9.84;89.03;102792.00;7388280;19;20086;-63
2022/03/27 06:23:32;;;;;;;32.85;11.35;;;;;;;9.80;89.61;102794.91;7387673;19;20578;-63
2022/03/27 06:25:59;;;;;;;15.10;7.63;;;;;;;9.77;89.97;102793.31;7388294;19;20125;-62
2022/03/27 06:28:26;;;;;;;17.50;6.93;;;;;;;9.78;89.91;102796.78;7387483;19;20077;-63
2022/03/27 06:30:53;;;;;;;15.00;6.90;;;;;;;9.76;89.76;102796.88;7387100;19;20018;-63
2022/03/27 06:33:20;;;;;;;18.80;7.50;;;;;;;9.73;89.71;102798.88;7387195;19;20136;-62
2022/03/27 06:35:47;;;;;;;48.80;10.27;;;;;;;9.73;90.47;102794.47;7385291;19;20452;-64
2022/03/27 06:38:17;;;;;;;16.30;5.93;;;;;;;9.69;90.63;102792.13;7385961;19;20311;-62
2022/03/27 06:40:44;;;;;;;15.13;5.80;;;;;;;9.66;90.02;102787.91;7387612;19;20029;-63
2022/03/27 06:43:11;;;;;;;13.45;6.15;;;;;;;9.65;90.46;102782.75;7384667;19;20082;-64
2022/03/27 06:45:38;;;;;;;15.90;6.20;;;;;;;9.61;89.99;102784.72;7389265;19;20094;-63
2022/03/27 06:48:06;;;;;;;15.18;5.72;;;;;;;9.58;90.36;102795.44;7388086;19;20671;-64
2022/03/27 06:50:33;;;;;;;12.55;5.32;;;;;;;9.53;89.96;102791.41;7389878;19;20014;-62
2022/03/27 06:52:59;;;;;;;14.38;5.57;;;;;;;9.48;90.40;102793.50;7390691;19;20130;-63
2022/03/27 06:55:28;;;;;;;10.52;4.28;;;;;;;9.47;90.26;102800.53;7389485;19;20572;-63
2022/03/27 06:57:55;;;;;;;49.75;6.75;;;;;;;9.47;90.11;102797.91;7385113;19;20021;-64
2022/03/27 07:03:09;;;;;;;10.75;3.95;;;;;;;9.45;90.46;102802.38;7385407;19;20320;-62
2022/03/27 07:05:42;;;;;;;10.85;4.07;;;;;;;9.36;90.62;102803.81;7389256;19;20341;-64
2022/03/27 07:08:14;;;;;;;11.43;3.40;;;;;;;9.36;91.36;102802.97;7389455;19;20042;-64
2022/03/27 07:10:44;;;;;;;11.45;4.45;;;;;;;9.35;91.63;102801.28;7386927;19;20343;-62
2022/03/27 07:13:13;;;;;;;10.85;4.15;;;;;;;9.37;91.54;102807.28;7387573;19;20010;-63
2022/03/27 07:15:42;;;;;;;10.48;3.50;;;;;;;9.40;91.39;102796.59;7384518;19;20053;-63
2022/03/27 07:18:10;;;;;;;9.32;3.65;;;;;;;9.42;91.38;102800.81;7386868;19;20376;-64
2022/03/27 07:20:40;;;;;;;10.82;4.25;;;;;;;9.48;91.12;102798.75;7389290;19;20014;-64
2022/03/27 07:23:09;;;;;;;10.25;5.05;;;;;;;9.47;91.23;102790.00;7387234;19;20014;-64
2022/03/27 07:25:39;;;;;;;9.55;3.92;;;;;;;9.49;91.33;102792.56;7385738;19;20031;-63
2022/03/27 07:28:08;;;;;;;12.35;4.45;;;;;;;9.51;91.68;102793.28;7382476;19;20025;-63
2022/03/27 07:30:35;;;;;;;9.52;3.72;;;;;;;9.56;91.70;102791.22;7385256;19;20007;-63
2022/03/27 07:33:03;;;;;;;10.95;3.95;;;;;;;9.62;91.72;102801.34;7385190;19;20023;-64
2022/03/27 07:35:34;;;;;;;9.15;3.28;;;;;;;9.64;91.34;102795.06;7385055;19;20021;-63
2022/03/27 07:38:03;;;;;;;10.23;4.63;;;;;;;9.69;91.43;102794.75;7383901;19;20044;-64
2022/03/27 07:40:30;;;;;;;10.00;4.32;;;;;;;9.70;91.49;102794.63;7385601;19;20090;-63
2022/03/27 07:42:57;;;;;;;10.73;4.20;;;;;;;9.77;91.25;102787.22;7385380;19;20070;-63
2022/03/27 07:45:27;;;;;;;8.73;3.53;;;;;;;9.77;91.03;102795.94;7388573;19;20027;-63
2022/03/27 07:47:55;;;;;;;10.68;3.78;;;;;;;9.81;91.11;102799.22;7385229;19;20078;-63
2022/03/27 07:50:24;;;;;;;8.60;3.50;;;;;;;9.87;90.63;102785.66;7386617;19;20006;-63
2022/03/27 07:52:51;;;;;;;11.27;3.83;;;;;;;9.74;91.56;102795.31;7384871;19;20029;-64
2022/03/27 07:55:20;;;;;;;10.18;3.97;;;;;;;9.64;92.03;102800.31;7383748;19;20130;-64
2022/03/27 07:57:53;;;;;;;10.88;4.07;;;;;;;9.69;91.96;102789.50;7383289;19;20010;-62
2022/03/27 08:00:20;;;;;;;9.23;3.33;;;;;;;9.71;92.41;102796.34;7383642;19;20341;-62
2022/03/27 08:02:47;;;;;;;9.82;4.07;;;;;;;9.73;92.04;102798.88;7387276;19;20450;-62
2022/03/27 08:05:14;;;;;;;19.90;8.25;;;;;;;9.76;92.24;102803.91;7384299;19;20511;-63
2022/03/27 08:07:42;;;;;;;14.35;5.03;;;;;;;9.78;92.91;102788.91;7388389;19;20022;-63
2022/03/27 08:10:09;;;;;;;11.00;4.55;;;;;;;9.83;92.94;102798.19;7386338;19;20600;-63
2022/03/27 08:12:36;;;;;;;11.75;3.88;;;;;;;9.93;92.38;102805.47;7381900;19;20082;-63
2022/03/27 08:15:05;;;;;;;12.25;4.63;;;;;;;9.95;91.74;102799.19;7387184;19;20028;-63
2022/03/27 08:17:32;;;;;;;11.43;4.00;;;;;;;9.98;91.72;102800.75;7384981;19;20024;-64
2022/03/27 08:19:59;;;;;;;9.70;3.75;;;;;;;9.96;91.95;102805.25;7386393;19;20684;-64
2022/03/27 08:22:26;;;;;;;9.63;3.78;;;;;;;9.97;91.89;102791.16;7381184;19;20014;-63
2022/03/27 08:24:53;;;;;;;11.68;4.60;;;;;;;9.95;92.09;102796.56;7386762;19;20015;-63
2022/03/27 08:27:20;;;;;;;10.40;3.85;;;;;;;9.96;92.19;102794.75;7382926;19;20011;-63
2022/03/27 08:29:48;;;;;;;10.65;4.30;;;;;;;9.98;92.28;102790.22;7387784;19;20516;-62
2022/03/27 08:32:16;;;;;;;8.90;3.92;;;;;;;10.02;92.60;102795.19;7387768;19;20014;-63
2022/03/27 08:34:46;;;;;;;9.23;3.60;;;;;;;10.06;92.50;102782.66;7383375;19;20016;-62
2022/03/27 08:37:15;;;;;;;10.50;4.97;;;;;;;10.10;92.39;102789.44;7384378;19;20070;-64
2022/03/27 08:39:44;;;;;;;11.00;3.90;;;;;;;10.14;92.36;102789.13;7383448;19;20010;-63
2022/03/27 08:42:17;;;;;;;9.52;3.92;;;;;;;10.17;92.38;102790.75;7385824;19;20278;-64
2022/03/27 08:44:47;;;;;;;8.20;2.80;;;;;;;10.14;91.67;102789.13;7380768;19;20312;-64
2022/03/27 08:47:26;;;;;;;15.40;4.50;;;;;;;10.20;92.21;102794.03;7384875;19;20036;-64
2022/03/27 08:50:00;;;;;;;8.85;3.25;;;;;;;10.23;92.89;102788.56;7386859;19;20109;-63
2022/03/27 08:52:51;;;;;;;9.60;3.70;;;;;;;10.26;92.54;102785.69;7382871;19;20011;-63
2022/03/27 08:55:22;;;;;;;8.48;3.22;;;;;;;10.33;91.80;102790.56;7385639;19;20022;-62
2022/03/27 08:57:55;;;;;;;11.07;3.17;;;;;;;10.38;91.64;102789.31;7382276;19;20491;-62
2022/03/27 09:00:31;;;;;;;29.38;10.32;;;;;;;10.41;92.07;102786.50;7385445;19;20015;-63
2022/03/27 09:03:00;;;;;;;10.50;3.92;;;;;;;10.49;91.25;102791.22;7380883;19;20086;-63
2022/03/27 09:05:27;;;;;;;11.55;4.18;;;;;;;10.50;91.87;102792.91;7382451;19;20095;-65
2022/03/27 09:07:56;;;;;;;8.98;3.60;;;;;;;10.59;91.50;102789.66;7382992;19;20072;-63
2022/03/27 09:10:25;;;;;;;24.20;6.95;;;;;;;10.60;91.03;102788.72;7386393;19;20090;-64
2022/03/27 09:12:54;;;;;;;10.68;4.20;;;;;;;10.61;90.80;102795.66;7382348;19;20122;-63
2022/03/27 09:15:23;;;;;;;12.07;4.15;;;;;;;10.66;90.26;102789.16;7386858;19;20014;-64
2022/03/27 09:17:54;;;;;;;10.48;3.65;;;;;;;10.73;90.26;102795.66;7383399;19;20721;-64
2022/03/27 09:20:41;;;;;;;7.60;3.30;;;;;;;10.73;89.91;102789.56;7383370;19;20038;-64
2022/03/27 09:23:27;;;;;;;53.63;6.47;;;;;;;10.76;90.37;102780.63;7383740;19;20006;-64
2022/03/27 09:25:59;;;;;;;10.45;4.60;;;;;;;10.83;91.35;102781.84;7387040;19;20031;-65
2022/03/27 09:28:33;;;;;;;7.22;3.05;;;;;;;10.89;89.44;102784.06;7393090;19;20011;-65
2022/03/27 09:31:19;;;;;;;6.35;2.92;;;;;;;10.94;89.17;102787.22;7394394;19;20107;-64
2022/03/27 09:34:02;;;;;;;7.60;3.03;;;;;;;10.94;89.01;102787.22;7389123;19;20086;-63
2022/03/27 09:36:41;;;;;;;10.82;3.85;;;;;;;11.00;89.63;102787.66;7388479;19;20429;-64
2022/03/27 09:39:18;;;;;;;43.08;7.82;;;;;;;11.06;90.32;102789.03;7389857;19;20094;-64
2022/03/27 09:41:53;;;;;;;8.00;2.92;;;;;;;11.06;89.71;102797.78;7392373;19;20196;-64
2022/03/27 09:44:36;;;;;;;8.95;4.03;;;;;;;11.08;89.22;102797.66;7389385;19;20048;-65
2022/03/27 09:47:13;;;;;;;8.80;3.28;;;;;;;11.13;89.25;102791.09;7390727;19;20007;-64
2022/03/27 09:49:43;;;;;;;10.55;3.42;;;;;;;11.15;88.74;102796.28;7390676;19;20002;-64
2022/03/27 09:52:20;;;;;;;8.60;3.35;;;;;;;11.16;88.83;102792.69;7389518;19;20050;-64
2022/03/27 09:54:55;;;;;;;8.75;3.38;;;;;;;11.20;88.76;102786.25;7390163;19;20031;-63
2022/03/27 09:57:40;;;;;;;8.90;3.45;;;;;;;11.25;88.25;102796.47;7392281;19;20030;-63
2022/03/27 10:00:19;;;;;;;7.03;3.17;;;;;;;11.25;88.09;102789.41;7388764;19;20013;-63
2022/03/27 10:02:48;;;;;;;9.98;4.15;;;;;;;11.28;88.76;102798.88;7391910;19;20107;-63
2022/03/27 10:05:19;;;;;;;8.27;3.20;;;;;;;11.33;88.19;102786.22;7390085;19;20011;-64
2022/03/27 10:07:52;;;;;;;8.93;3.22;;;;;;;11.36;87.62;102781.59;7389276;19;20078;-64
2022/03/27 10:10:20;;;;;;;;;;;;;;;11.40;87.88;102782.19;7391094;19;20006;-64
2022/03/27 10:12:49;;;;;;;8.25;3.60;;;;;;;11.41;88.39;102771.56;7387411;19;19921;-64
2022/03/27 10:15:22;;;;;;;6.97;3.08;;;;;;;11.41;87.80;102773.34;7390438;19;20007;-64
2022/03/27 10:18:12;;;;;;;9.13;3.70;;;;;;;11.40;87.73;102769.88;7386369;19;20040;-64
2022/03/27 10:20:39;;;;;;;8.73;4.35;;;;;;;11.42;87.88;102781.16;7388236;19;20044;-62
2022/03/27 10:23:12;;;;;;;8.27;3.08;;;;;;;11.41;87.57;102774.19;7387333;19;20006;-64
2022/03/27 10:26:02;;;;;;;8.48;2.60;;;;;;;11.35;87.77;102776.41;7390122;19;20018;-63
2022/03/27 10:28:35;;;;;;;8.15;3.55;;;;;;;11.32;87.98;102774.00;7387327;19;20014;-63
2022/03/27 10:31:02;;;;;;;9.15;3.45;;;;;;;11.35;88.65;102769.34;7390145;19;20119;-64
2022/03/27 10:33:30;;;;;;;8.02;3.33;;;;;;;11.38;88.16;102763.84;7389361;19;20046;-63
2022/03/27 10:36:06;;;;;;;6.35;2.85;;;;;;;11.41;87.87;102761.00;7388288;19;20007;-62
2022/03/27 10:38:48;;;;;;;8.52;4.40;;;;;;;11.40;88.35;102756.69;7384283;19;20015;-63
2022/03/27 10:41:33;;;;;;;10.70;4.07;;;;;;;11.41;88.11;102754.91;7385450;19;20014;-64
2022/03/27 10:44:11;;;;;;;7.82;3.20;;;;;;;11.40;87.96;102755.84;7386112;19;20009;-63
2022/03/27 10:46:40;;;;;;;7.38;3.05;;;;;;;11.41;87.87;102747.00;7385488;19;20015;-64
2022/03/27 10:49:16;;;;;;;7.10;2.85;;;;;;;11.45;88.03;102757.19;7386906;19;20428;-64
2022/03/27 10:51:46;;;;;;;6.80;3.10;;;;;;;11.35;88.24;102757.97;7388634;19;20014;-63
2022/03/27 10:54:19;;;;;;;10.27;3.63;;;;;;;11.17;88.93;102746.97;7387997;19;20054;-63
2022/03/27 10:56:51;;;;;;;7.97;3.03;;;;;;;11.10;89.45;102749.19;7384090;19;20285;-63
2022/03/27 10:59:24;;;;;;;5.50;2.70;;;;;;;11.17;89.66;102746.97;7382690;19;20300;-63
2022/03/27 11:01:56;;;;;;;7.22;3.03;;;;;;;11.23;89.69;102748.28;7384674;19;20702;-63
2022/03/27 11:04:44;;;;;;;6.50;2.58;;;;;;;11.29;89.29;102746.06;7384768;19;20012;-64
2022/03/27 11:07:20;;;;;;;7.13;2.85;;;;;;;11.33;89.28;102746.69;7384269;19;20558;-64
2022/03/27 11:09:49;;;;;;;7.55;3.00;;;;;;;11.43;88.91;102748.56;7382037;19;20373;-63
2022/03/27 11:12:26;;;;;;;24.90;5.90;;;;;;;11.51;88.35;102746.22;7388411;19;20449;-62
2022/03/27 11:14:59;;;;;;;7.85;3.30;;;;;;;11.56;88.10;102737.97;7387905;19;20007;-62
2022/03/27 11:17:40;;;;;;;5.00;2.35;;;;;;;11.61;87.76;102749.03;7383211;19;20011;-63
2022/03/27 11:20:35;;;;;;;7.87;3.03;;;;;;;11.65;87.52;102742.56;7384918;19;20365;-62
2022/03/27 11:23:04;;;;;;;7.20;2.75;;;;;;;11.76;86.94;102741.81;7382484;19;20287;-63
2022/03/27 11:25:37;;;;;;;8.65;4.10;;;;;;;11.81;86.80;102752.88;7383796;19;20013;-64
2022/03/27 11:28:14;;;;;;;8.30;3.30;;;;;;;11.86;87.62;102743.66;7382284;19;20018;-64
2022/03/27 11:31:12;;;;;;;6.25;2.45;;;;;;;11.93;85.97;102746.69;7385237;19;20050;-64
2022/03/27 11:34:14;;;;;;;5.07;2.28;;;;;;;12.00;86.79;102745.25;7384868;19;20344;-64
2022/03/27 11:36:43;;;;;;;5.55;2.40;;;;;;;12.00;85.63;102745.25;7383338;19;20019;-64
2022/03/27 11:39:12;;;;;;;6.93;3.65;;;;;;;12.00;85.01;102746.09;7384629;19;20014;-63